Terminal Aerodrome Forecast
Issued by NWS

Home | Current Version | Previous Version | Text Only | Print | Product List | Glossary Off
Versions: 1 2 3 4 5 6 7 8 9 10 11 12 13 14 15 16 17 18 19 20 21

000
FTUS43 KBIS 290900 AAA
TAFMOT
TAF AMD
KMOT 290905Z 2909/3006 19011KT P6SM SCT110
      TEMPO 2909/2911 29019G28KT BKN110
     FM291200 31010KT P6SM VCSH SCT030 BKN080
     FM291600 35015KT P6SM SCT030 BKN080
     FM300300 04009KT P6SM SKC=

USA.gov is the U.S. government's official web portal to all federal, state and local government web resources and services.